Time;durP1;ratioP1;P1;durP2;ratioP2;P2;SDS_P1;SDS_P2;PMS_P1;PMS_P2;Temp;Humidity;BMP_temperature;BMP_pressure;BME280_temperature;BME280_humidity;BME280_pressure;Samples;Min_cycle;Max_cycle;Signal;HPM_P1;HPM_P2
2022/07/07 00:01:43;;;;;;;6.85;2.38;;;;;;;18.72;nan;101954.50;5034981;28;20111;-56
2022/07/07 00:04:09;;;;;;;5.18;2.10;;;;;;;18.27;nan;101877.59;5033732;28;20041;-54
2022/07/07 00:06:34;;;;;;;7.63;3.05;;;;;;;18.63;nan;101949.63;5034715;28;20029;-58
2022/07/07 00:09:01;;;;;;;2.88;1.95;;;;;;;18.29;nan;101887.22;5034908;28;20033;-58
2022/07/07 00:11:27;;;;;;;7.85;2.50;;;;;;;18.29;nan;101889.03;5016995;28;20026;-56
2022/07/07 00:13:53;;;;;;;4.72;2.00;;;;;;;18.55;nan;101939.34;5033749;28;20477;-56
2022/07/07 00:16:18;;;;;;;6.32;2.33;;;;;;;18.61;nan;101956.84;5033329;28;20037;-56
2022/07/07 00:18:44;;;;;;;4.85;2.13;;;;;;;18.59;nan;101961.38;5033064;28;20037;-54
2022/07/07 00:21:09;;;;;;;5.40;2.42;;;;;;;18.51;nan;101945.75;5034382;28;20473;-53
2022/07/07 00:23:35;;;;;;;1.83;1.60;;;;;;;18.51;nan;101943.94;5032844;28;20112;-55
2022/07/07 00:26:00;;;;;;;4.15;1.98;;;;;;;18.30;nan;101912.94;5034101;28;20037;-55
2022/07/07 00:28:26;;;;;;;3.78;1.55;;;;;;;18.46;nan;101927.28;5034258;28;20168;-56
2022/07/07 00:30:51;;;;;;;4.72;1.75;;;;;;;18.23;nan;101891.97;5034097;28;20056;-55
2022/07/07 00:33:16;;;;;;;5.18;2.15;;;;;;;18.46;nan;101926.41;5034183;28;20120;-53
2022/07/07 00:35:42;;;;;;;2.53;1.73;;;;;;;18.48;nan;101936.09;5033033;28;20513;-55
2022/07/07 00:38:08;;;;;;;4.95;1.85;;;;;;;18.39;nan;101916.97;5034085;28;20041;-54
2022/07/07 00:40:33;;;;;;;2.08;1.70;;;;;;;18.46;nan;101932.59;5034282;28;20037;-57
2022/07/07 00:42:58;;;;;;;2.78;1.75;;;;;;;18.15;nan;101873.72;5033771;28;20036;-56
2022/07/07 00:45:24;;;;;;;4.28;1.80;;;;;;;18.14;nan;101871.09;5033832;28;20030;-56
2022/07/07 00:47:50;;;;;;;3.72;1.80;;;;;;;18.41;nan;101937.31;5032942;28;20386;-54
2022/07/07 00:50:15;;;;;;;4.00;1.58;;;;;;;18.24;nan;101915.88;5033785;28;20473;-56
2022/07/07 00:52:41;;;;;;;6.30;2.13;;;;;;;18.07;nan;101904.31;5033844;28;20041;-57
2022/07/07 00:55:08;;;;;;;2.30;1.80;;;;;;;18.26;nan;101930.03;5033892;28;20038;-57
2022/07/07 00:57:34;;;;;;;3.75;2.33;;;;;;;18.25;nan;101936.28;5033869;28;20033;-56
2022/07/07 01:00:01;;;;;;;4.60;1.70;;;;;;;18.18;nan;101932.19;5033704;28;20045;-57
2022/07/07 01:02:29;;;;;;;3.92;1.98;;;;;;;18.08;nan;101924.69;5033757;28;20040;-60
2022/07/07 01:04:55;;;;;;;9.38;1.98;;;;;;;17.99;nan;101933.97;5032536;28;20050;-59
2022/07/07 01:07:20;;;;;;;3.85;2.00;;;;;;;17.95;nan;101932.34;5015901;28;20083;-60
2022/07/07 01:09:46;;;;;;;3.03;1.50;;;;;;;17.66;nan;101899.06;5015860;28;20129;-59
2022/07/07 01:12:11;;;;;;;3.10;1.50;;;;;;;17.91;nan;101936.97;5032286;28;20041;-60
2022/07/07 01:14:38;;;;;;;2.63;1.65;;;;;;;17.64;nan;101892.06;5032261;28;20048;-60
2022/07/07 01:17:04;;;;;;;4.50;2.10;;;;;;;17.84;nan;101948.84;5033305;28;20041;-55
2022/07/07 01:19:29;;;;;;;3.97;1.77;;;;;;;17.80;nan;101917.97;5033551;28;20033;-56
2022/07/07 01:21:57;;;;;;;1.48;1.35;;;;;;;16.84;nan;101747.53;5033379;28;20037;-58
2022/07/07 01:24:25;;;;;;;1.98;1.27;;;;;;;17.88;nan;101939.78;5031913;28;20029;-55
2022/07/07 01:27:03;;;;;;;4.60;1.30;;;;;;;17.80;nan;101925.97;5032061;28;20156;-57
2022/07/07 01:29:29;;;;;;;3.33;1.40;;;;;;;17.51;nan;101870.44;5032156;28;20084;-53
2022/07/07 01:31:58;;;;;;;3.83;1.70;;;;;;;17.42;nan;101860.22;5032933;28;20492;-55
2022/07/07 01:34:23;;;;;;;1.70;1.48;;;;;;;17.34;nan;101847.22;5032927;28;20037;-54
2022/07/07 01:36:49;;;;;;;3.58;2.03;;;;;;;17.35;nan;101864.94;5032993;28;20052;-52
2022/07/07 01:39:14;;;;;;;2.95;1.70;;;;;;;17.50;nan;101894.47;5033092;28;20083;-56
2022/07/07 01:41:39;;;;;;;2.72;1.40;;;;;;;17.36;nan;101873.78;5032990;28;20107;-57
2022/07/07 01:44:04;;;;;;;3.72;1.73;;;;;;;17.14;nan;101822.44;5033095;28;20037;-57
2022/07/07 01:46:31;;;;;;;3.28;1.63;;;;;;;17.44;nan;101883.16;5033135;28;20030;-55
2022/07/07 01:48:56;;;;;;;3.17;1.60;;;;;;;17.08;nan;101828.88;5032955;28;20575;-59
2022/07/07 01:51:21;;;;;;;3.97;2.28;;;;;;;16.97;nan;101824.97;5032936;28;20120;-60
2022/07/07 01:53:47;;;;;;;3.38;2.10;;;;;;;17.23;nan;101884.09;5031285;28;20041;-57
2022/07/07 01:56:12;;;;;;;6.30;2.17;;;;;;;17.08;nan;101862.59;5032590;28;20424;-56
2022/07/07 01:58:37;;;;;;;4.25;2.42;;;;;;;17.00;nan;101870.91;5031631;28;20033;-60
2022/07/07 02:01:03;;;;;;;6.05;2.40;;;;;;;17.00;nan;101867.38;5031487;28;20060;-58
2022/07/07 02:03:28;;;;;;;4.47;2.65;;;;;;;16.87;nan;101841.31;5032672;28;20073;-59
2022/07/07 02:05:53;;;;;;;3.42;2.22;;;;;;;16.61;nan;101806.09;5031364;28;20037;-59
2022/07/07 02:08:19;;;;;;;6.65;2.45;;;;;;;16.84;nan;101853.91;5032669;28;20040;-59
2022/07/07 02:13:28;;;;;;;7.70;2.40;;;;;;;16.62;nan;101797.22;5031428;28;20043;-60
2022/07/07 02:15:53;;;;;;;6.45;2.40;;;;;;;16.62;nan;101790.13;5031278;28;20124;-58
2022/07/07 02:18:18;;;;;;;4.80;2.00;;;;;;;17.01;nan;101853.16;5032468;28;20040;-56
2022/07/07 02:20:43;;;;;;;5.85;2.15;;;;;;;16.75;nan;101804.59;5031199;28;20031;-54
2022/07/07 02:23:09;;;;;;;5.03;2.22;;;;;;;16.71;nan;101799.50;5032365;28;20033;-57
2022/07/07 02:25:35;;;;;;;4.47;2.45;;;;;;;17.06;nan;101870.66;5031275;28;20040;-58
2022/07/07 02:28:00;;;;;;;6.45;2.15;;;;;;;17.02;nan;101866.38;5032274;28;20129;-57
2022/07/07 02:30:25;;;;;;;5.45;2.40;;;;;;;16.62;nan;101818.50;5032275;28;20029;-56
2022/07/07 02:32:51;;;;;;;10.65;3.08;;;;;;;16.75;nan;101848.97;5032182;28;20052;-56
2022/07/07 02:35:16;;;;;;;4.40;2.42;;;;;;;16.29;nan;101784.38;5032127;28;20048;-57
2022/07/07 02:37:41;;;;;;;4.55;2.30;;;;;;;16.56;nan;101856.81;5035182;28;20516;-58
2022/07/07 02:40:07;;;;;;;5.47;2.40;;;;;;;16.50;nan;101853.50;5039111;28;20036;-56
2022/07/07 02:42:33;;;;;;;10.38;2.88;;;;;;;16.46;nan;101860.72;5038824;28;20033;-55
2022/07/07 02:44:58;;;;;;;7.45;2.13;;;;;;;16.03;nan;101803.16;5038820;28;20037;-58
2022/07/07 02:47:23;;;;;;;9.60;2.25;;;;;;;15.69;nan;101757.63;5038741;28;20029;-56
2022/07/07 02:49:49;;;;;;;7.63;2.72;;;;;;;16.01;nan;101804.16;5038703;28;20033;-55
2022/07/07 02:52:14;;;;;;;7.00;2.47;;;;;;;16.21;nan;101867.97;5038638;28;20456;-58
2022/07/07 02:54:40;;;;;;;9.15;1.80;;;;;;;15.69;nan;101806.25;5037718;28;20045;-56
2022/07/07 02:57:05;;;;;;;8.00;1.88;;;;;;;15.98;nan;101857.38;5038715;28;20469;-57
2022/07/07 02:59:30;;;;;;;7.25;1.88;;;;;;;15.56;nan;101804.97;5038760;28;20090;-57
2022/07/07 03:01:56;;;;;;;4.75;1.55;;;;;;;15.82;nan;101865.03;5038571;28;20112;-56
2022/07/07 03:04:21;;;;;;;8.07;1.85;;;;;;;15.50;nan;101815.81;5038633;28;20406;-55
2022/07/07 03:06:47;;;;;;;5.80;1.70;;;;;;;15.60;nan;101832.28;5038457;28;20033;-50
2022/07/07 03:09:12;;;;;;;9.05;2.22;;;;;;;15.75;nan;101863.56;5038405;28;20037;-51
2022/07/07 03:11:37;;;;;;;10.75;1.83;;;;;;;15.74;nan;101869.78;5038613;28;20087;-50
2022/07/07 03:14:03;;;;;;;12.02;2.08;;;;;;;15.75;nan;101874.19;5038158;28;20033;-54
2022/07/07 03:16:28;;;;;;;7.57;2.30;;;;;;;15.79;nan;101870.47;5038158;28;20175;-55
2022/07/07 03:18:53;;;;;;;5.13;2.13;;;;;;;15.56;nan;101828.00;5038305;28;20113;-54
2022/07/07 03:21:19;;;;;;;9.35;2.13;;;;;;;15.48;nan;101819.47;5038744;28;20561;-54
2022/07/07 03:23:44;;;;;;;8.40;2.25;;;;;;;15.86;nan;101881.72;5038287;28;20039;-52
2022/07/07 03:26:09;;;;;;;6.45;1.73;;;;;;;15.43;nan;101813.44;5038241;28;20116;-56
2022/07/07 03:28:34;;;;;;;11.13;1.88;;;;;;;15.54;nan;101820.09;5038606;28;20037;-54
2022/07/07 03:31:00;;;;;;;9.57;2.30;;;;;;;15.76;nan;101850.22;5038377;28;20468;-53
2022/07/07 03:33:25;;;;;;;5.32;1.95;;;;;;;15.50;nan;101801.72;5038170;28;20044;-53
2022/07/07 03:35:50;;;;;;;9.70;2.30;;;;;;;15.85;nan;101877.38;5038295;28;20041;-55
2022/07/07 03:38:16;;;;;;;6.45;2.38;;;;;;;15.87;nan;101884.34;5038348;28;20075;-51
2022/07/07 03:40:41;;;;;;;10.77;2.58;;;;;;;15.58;nan;101831.47;5038473;28;20555;-52
2022/07/07 03:43:06;;;;;;;8.73;2.38;;;;;;;15.87;nan;101876.38;5038628;28;20524;-54
2022/07/07 03:45:31;;;;;;;8.45;2.90;;;;;;;15.82;nan;101859.72;5036741;28;20116;-50
2022/07/07 03:47:57;;;;;;;9.52;2.40;;;;;;;15.86;nan;101863.16;5038235;28;20033;-55
2022/07/07 03:50:22;;;;;;;10.98;2.35;;;;;;;15.63;nan;101829.50;5034088;28;20049;-55
2022/07/07 03:52:47;;;;;;;9.73;2.45;;;;;;;15.63;nan;101832.16;5034760;28;20034;-53
2022/07/07 03:55:13;;;;;;;8.88;2.42;;;;;;;15.84;nan;101870.31;5034782;28;20542;-54
2022/07/07 03:57:39;;;;;;;8.90;2.25;;;;;;;15.94;nan;101890.25;5034933;28;20044;-54
2022/07/07 04:00:05;;;;;;;10.43;1.98;;;;;;;15.90;nan;101878.91;5033702;28;20045;-54
2022/07/07 04:02:31;;;;;;;8.02;2.40;;;;;;;15.93;nan;101884.13;5034806;28;20060;-54
2022/07/07 04:04:56;;;;;;;9.20;2.88;;;;;;;15.96;nan;101885.78;5033601;28;20037;-55
2022/07/07 04:07:21;;;;;;;10.38;2.20;;;;;;;15.90;nan;101886.88;5034579;28;20444;-56
2022/07/07 04:09:47;;;;;;;6.57;1.67;;;;;;;15.63;nan;101840.13;5034994;28;20040;-55
2022/07/07 04:12:12;;;;;;;6.60;1.90;;;;;;;15.86;nan;101895.00;5034902;28;20025;-54
2022/07/07 04:14:38;;;;;;;7.50;1.70;;;;;;;15.66;nan;101880.69;5034609;28;20041;-56
2022/07/07 04:17:04;;;;;;;7.00;1.70;;;;;;;15.83;nan;101905.75;5034606;28;20029;-52
2022/07/07 04:19:29;;;;;;;8.02;1.60;;;;;;;15.85;nan;101923.34;5034664;28;20040;-57
2022/07/07 04:21:55;;;;;;;8.18;2.42;;;;;;;15.54;nan;101867.88;5034382;28;20112;-53
2022/07/07 04:24:20;;;;;;;9.23;2.30;;;;;;;15.79;nan;101914.75;5034653;28;20113;-54
2022/07/07 04:26:45;;;;;;;8.18;1.80;;;;;;;15.80;nan;101932.41;5034447;28;20133;-55
2022/07/07 04:29:11;;;;;;;9.05;1.90;;;;;;;15.75;nan;101946.72;5034605;28;20128;-56
2022/07/07 04:31:36;;;;;;;10.25;1.40;;;;;;;15.50;nan;101899.91;5034461;28;20132;-53
2022/07/07 04:34:04;;;;;;;9.95;1.67;;;;;;;15.49;nan;101901.69;5034067;28;20041;-50
2022/07/07 04:36:29;;;;;;;8.60;2.40;;;;;;;15.66;nan;101933.78;5032782;28;20026;-56
2022/07/07 04:38:56;;;;;;;7.47;1.65;;;;;;;15.67;nan;101932.84;5033881;28;20091;-54
2022/07/07 04:41:21;;;;;;;8.82;1.67;;;;;;;15.79;nan;101971.34;5034246;28;20040;-57
2022/07/07 04:43:47;;;;;;;8.48;2.20;;;;;;;15.54;nan;101920.06;5033013;28;20033;-54
2022/07/07 04:46:12;;;;;;;6.30;1.80;;;;;;;15.75;nan;101962.66;5033808;28;20481;-54
2022/07/07 04:48:37;;;;;;;12.52;2.17;;;;;;;15.68;nan;101954.94;5033913;28;20092;-58
2022/07/07 04:51:03;;;;;;;11.80;2.03;;;;;;;15.67;nan;101962.03;5033782;28;20030;-54
2022/07/07 04:53:28;;;;;;;13.38;2.42;;;;;;;15.78;nan;101982.91;5034070;28;20289;-58
2022/07/07 04:55:54;;;;;;;7.75;1.92;;;;;;;15.58;nan;101938.50;5033657;28;20039;-55
2022/07/07 04:58:19;;;;;;;9.95;2.38;;;;;;;15.45;nan;101900.00;5033921;28;20038;-57
2022/07/07 05:00:44;;;;;;;7.35;2.55;;;;;;;15.74;nan;101950.28;5033639;28;20030;-54
2022/07/07 05:03:10;;;;;;;12.70;2.72;;;;;;;15.68;nan;101942.53;5033499;28;20042;-54
2022/07/07 05:05:35;;;;;;;9.43;2.45;;;;;;;15.85;nan;101973.78;5033459;28;20064;-56
2022/07/07 05:08:00;;;;;;;8.57;2.42;;;;;;;15.68;nan;101945.19;5033494;28;20041;-56
2022/07/07 05:10:27;;;;;;;10.65;2.40;;;;;;;15.91;nan;101996.59;5033651;28;20396;-56
2022/07/07 05:12:52;;;;;;;8.48;2.40;;;;;;;15.94;nan;102000.00;5033505;28;20029;-57
2022/07/07 05:15:18;;;;;;;10.30;2.50;;;;;;;15.82;nan;101999.59;5033647;28;20030;-54
2022/07/07 05:17:43;;;;;;;13.82;2.80;;;;;;;15.83;nan;102019.91;5033830;28;20102;-55
2022/07/07 05:20:09;;;;;;;6.30;2.05;;;;;;;15.80;nan;102012.91;5033334;28;20036;-56
2022/07/07 05:22:34;;;;;;;13.57;2.28;;;;;;;15.60;nan;102008.31;5031950;28;20039;-52
2022/07/07 05:24:59;;;;;;;9.52;2.67;;;;;;;15.27;nan;101943.09;5033145;28;20037;-57
2022/07/07 05:27:25;;;;;;;7.70;1.73;;;;;;;15.51;nan;101981.22;5033100;28;20052;-55
2022/07/07 05:29:50;;;;;;;11.18;2.00;;;;;;;15.81;nan;102024.41;5033080;28;20060;-56
2022/07/07 05:32:16;;;;;;;7.45;1.98;;;;;;;15.84;nan;102011.91;5033094;28;20037;-60
2022/07/07 05:34:41;;;;;;;9.80;2.35;;;;;;;15.92;nan;102019.56;5032980;28;20069;-54
2022/07/07 05:37:06;;;;;;;7.35;2.42;;;;;;;15.73;nan;101967.13;5032771;28;20052;-54
2022/07/07 05:39:32;;;;;;;8.23;2.58;;;;;;;16.05;nan;102040.31;5032949;28;20037;-55
2022/07/07 05:41:57;;;;;;;12.65;1.75;;;;;;;15.73;nan;101975.09;5030355;28;20220;-58
2022/07/07 05:44:22;;;;;;;5.10;1.73;;;;;;;16.19;nan;102038.06;5031625;28;20044;-55
2022/07/07 05:46:48;;;;;;;3.97;1.13;;;;;;;16.30;nan;102057.13;5032725;28;20045;-55
2022/07/07 05:49:13;;;;;;;8.68;1.70;;;;;;;16.53;nan;102050.94;5032824;28;20443;-57
2022/07/07 05:51:38;;;;;;;10.07;2.42;;;;;;;16.73;nan;102064.38;5032597;28;20038;-56
2022/07/07 05:54:04;;;;;;;5.60;1.77;;;;;;;16.55;nan;102051.78;5032756;28;20038;-58
2022/07/07 05:56:29;;;;;;;10.30;2.17;;;;;;;16.34;nan;102082.63;5032825;28;20034;-54
2022/07/07 05:58:54;;;;;;;8.85;2.20;;;;;;;16.03;nan;102074.03;5032638;28;20090;-53
2022/07/07 06:01:20;;;;;;;4.97;1.80;;;;;;;15.95;nan;102068.13;5032636;28;20040;-56
2022/07/07 06:03:46;;;;;;;14.80;2.60;;;;;;;15.82;nan;102064.16;5032397;28;20095;-57
2022/07/07 06:06:11;;;;;;;6.53;2.15;;;;;;;15.42;nan;102013.34;5032377;28;20030;-56
2022/07/07 06:08:37;;;;;;;7.32;1.92;;;;;;;15.61;nan;102091.47;5031362;28;20030;-51
2022/07/07 06:11:02;;;;;;;5.40;1.70;;;;;;;15.52;nan;102075.84;5031289;28;20116;-58
2022/07/07 06:13:28;;;;;;;7.72;2.05;;;;;;;15.24;nan;102025.44;5031954;28;20068;-57
2022/07/07 06:15:53;;;;;;;9.63;2.03;;;;;;;15.50;nan;102078.53;5032450;28;20045;-55
2022/07/07 06:18:18;;;;;;;6.25;1.73;;;;;;;15.36;nan;102027.69;5032433;28;20041;-56
2022/07/07 06:20:43;;;;;;;8.00;1.30;;;;;;;15.85;nan;102079.16;5032220;28;20045;-55
2022/07/07 06:23:09;;;;;;;5.68;1.63;;;;;;;15.73;nan;102030.00;5032711;28;20477;-57
2022/07/07 06:25:35;;;;;;;9.02;1.80;;;;;;;16.13;nan;102071.94;5032475;28;20033;-58
2022/07/07 06:28:01;;;;;;;8.15;1.92;;;;;;;16.16;nan;102031.97;5032164;28;20377;-58
2022/07/07 06:30:26;;;;;;;8.80;2.65;;;;;;;16.49;nan;102094.50;5032162;28;20034;-56
2022/07/07 06:32:51;;;;;;;6.55;1.65;;;;;;;16.40;nan;102083.34;5032011;28;20051;-54
2022/07/07 06:35:19;;;;;;;4.93;1.80;;;;;;;16.22;nan;102040.59;5032137;28;20060;-57
2022/07/07 06:37:45;;;;;;;6.60;1.52;;;;;;;16.44;nan;102106.22;5032404;28;20038;-57
2022/07/07 06:40:10;;;;;;;9.07;1.90;;;;;;;16.09;nan;102076.47;5032119;28;20088;-55
2022/07/07 06:42:36;;;;;;;4.47;1.83;;;;;;;16.31;nan;102104.00;5032268;28;20040;-54
2022/07/07 06:45:01;;;;;;;4.75;1.23;;;;;;;16.54;nan;102110.31;5032168;28;20439;-54
2022/07/07 06:47:26;;;;;;;7.90;1.80;;;;;;;16.94;nan;102117.66;5032191;28;20041;-53
2022/07/07 06:49:51;;;;;;;4.32;1.65;;;;;;;16.34;nan;101975.50;5031946;28;20033;-56
2022/07/07 06:52:17;;;;;;;5.80;1.83;;;;;;;17.13;nan;102082.28;5032300;28;20487;-57
2022/07/07 06:54:42;;;;;;;5.32;1.95;;;;;;;17.29;nan;102152.59;5032082;28;20432;-53
2022/07/07 06:57:08;;;;;;;7.10;2.85;;;;;;;17.09;nan;102160.50;5031858;28;20556;-51
2022/07/07 06:59:34;;;;;;;4.82;1.48;;;;;;;16.57;nan;102089.81;5032181;28;20037;-59
2022/07/07 07:01:59;;;;;;;7.35;1.73;;;;;;;16.64;nan;102131.19;5033873;28;20038;-59
2022/07/07 07:04:25;;;;;;;6.75;1.85;;;;;;;16.47;nan;102112.28;5051091;28;20376;-58
2022/07/07 07:06:50;;;;;;;5.97;1.65;;;;;;;16.35;nan;102110.09;5054438;28;20040;-56
2022/07/07 07:09:16;;;;;;;6.75;1.95;;;;;;;16.50;nan;102136.09;5061012;28;20051;-57
2022/07/07 07:11:41;;;;;;;5.50;1.75;;;;;;;16.71;nan;102148.66;5051963;28;20074;-58
2022/07/07 07:14:06;;;;;;;2.95;1.52;;;;;;;16.73;nan;102138.81;5068783;28;20063;-53
2022/07/07 07:16:32;;;;;;;4.53;1.15;;;;;;;16.97;nan;102155.66;5071817;28;20059;-57
2022/07/07 07:18:57;;;;;;;5.78;1.38;;;;;;;16.87;nan;102101.94;5066644;28;20057;-54
2022/07/07 07:21:23;;;;;;;4.07;1.13;;;;;;;17.31;nan;102160.50;5050804;28;20392;-56
2022/07/07 07:23:48;;;;;;;4.47;0.85;;;;;;;17.45;nan;102164.38;5051533;28;20033;-57
2022/07/07 07:26:13;;;;;;;1.75;0.85;;;;;;;17.51;nan;102184.59;5037566;28;20490;-58
2022/07/07 07:28:39;;;;;;;7.65;1.10;;;;;;;17.60;nan;102167.41;5037792;28;20510;-50
2022/07/07 07:31:04;;;;;;;4.97;1.10;;;;;;;17.95;nan;102153.47;5055329;28;20029;-53
2022/07/07 07:33:31;;;;;;;2.83;1.05;;;;;;;18.65;nan;102185.97;5055168;28;20120;-53
2022/07/07 07:35:57;;;;;;;5.07;1.38;;;;;;;18.02;nan;102107.00;5055483;28;20472;-55
2022/07/07 07:38:22;;;;;;;5.78;1.20;;;;;;;18.21;nan;102195.91;5055456;28;20445;-59
2022/07/07 07:40:47;;;;;;;5.05;1.27;;;;;;;18.40;nan;102187.94;5055303;28;20064;-55
2022/07/07 07:43:13;;;;;;;3.55;0.98;;;;;;;18.73;nan;102212.31;5055411;28;20043;-52
2022/07/07 07:45:38;;;;;;;5.13;1.13;;;;;;;18.94;nan;102196.19;5055257;28;20037;-54
2022/07/07 07:48:04;;;;;;;4.30;1.48;;;;;;;19.12;nan;102206.97;5053713;28;20074;-54
2022/07/07 07:50:30;;;;;;;3.88;1.70;;;;;;;19.06;nan;102178.75;5037406;28;20087;-55
2022/07/07 07:52:56;;;;;;;7.35;1.80;;;;;;;19.05;nan;102212.59;5053874;28;20087;-55
2022/07/07 07:55:22;;;;;;;7.63;1.95;;;;;;;18.57;nan;102222.78;5051090;28;20029;-56
2022/07/07 07:57:47;;;;;;;6.05;1.70;;;;;;;17.65;nan;102158.28;5033890;28;20396;-52
2022/07/07 08:00:15;;;;;;;5.60;1.48;;;;;;;17.65;nan;102184.91;5033760;28;20033;-55
2022/07/07 08:02:41;;;;;;;7.75;2.10;;;;;;;17.45;nan;102211.44;5033461;28;20500;-51
2022/07/07 08:05:07;;;;;;;7.20;2.00;;;;;;;16.76;nan;102136.03;5033792;28;20029;-54
2022/07/07 08:07:33;;;;;;;9.93;2.33;;;;;;;16.29;nan;102135.09;5032811;28;20113;-57
2022/07/07 08:10:02;;;;;;;8.60;2.00;;;;;;;16.53;nan;102189.16;5034579;28;20064;-62
2022/07/07 08:12:27;;;;;;;7.60;1.90;;;;;;;16.52;nan;102117.47;5034686;28;20033;-58
2022/07/07 08:14:52;;;;;;;5.57;1.65;;;;;;;17.11;nan;102189.69;5033989;28;20389;-60
2022/07/07 08:17:18;;;;;;;5.10;1.58;;;;;;;16.43;nan;102116.00;5034530;28;20030;-60
2022/07/07 08:19:43;;;;;;;2.72;0.90;;;;;;;17.00;nan;102183.91;5034727;28;20041;-60
2022/07/07 08:22:10;;;;;;;4.15;1.05;;;;;;;17.02;nan;102153.66;5034398;28;20124;-61
2022/07/07 08:24:36;;;;;;;10.45;2.05;;;;;;;17.25;nan;102161.63;5034527;28;20047;-59
2022/07/07 08:27:02;;;;;;;9.23;1.30;;;;;;;17.66;nan;102132.53;5034112;28;20144;-61
2022/07/07 08:29:29;;;;;;;7.20;1.40;;;;;;;17.85;nan;102224.94;5034445;28;20072;-58
2022/07/07 08:31:54;;;;;;;6.72;1.27;;;;;;;17.21;nan;102176.00;5034053;28;20072;-59
2022/07/07 08:34:20;;;;;;;6.07;2.08;;;;;;;17.43;nan;102208.81;5033060;28;20042;-60
2022/07/07 08:36:46;;;;;;;8.88;1.50;;;;;;;17.05;nan;102164.19;5033703;28;20034;-59
2022/07/07 08:39:11;;;;;;;5.45;1.83;;;;;;;17.32;nan;102212.81;5034205;28;20038;-57
2022/07/07 08:41:36;;;;;;;7.22;1.90;;;;;;;17.44;nan;102231.88;5034497;28;20059;-58
2022/07/07 08:44:03;;;;;;;7.25;1.85;;;;;;;17.24;nan;102230.88;5033954;28;20108;-56
2022/07/07 08:46:28;;;;;;;6.72;1.63;;;;;;;16.87;nan;102176.41;5032209;28;20033;-56
2022/07/07 08:48:54;;;;;;;9.80;1.70;;;;;;;17.11;nan;102232.25;5032666;28;20048;-55
2022/07/07 08:51:20;;;;;;;6.40;1.95;;;;;;;16.75;nan;102176.84;5032043;28;20091;-55
2022/07/07 08:53:46;;;;;;;3.85;1.30;;;;;;;16.83;nan;102243.06;5032913;28;20060;-54
2022/07/07 08:56:12;;;;;;;6.97;2.08;;;;;;;16.54;nan;102182.09;5043729;28;20033;-59
2022/07/07 08:58:38;;;;;;;6.68;1.73;;;;;;;16.85;nan;102244.75;5053761;28;20032;-55
2022/07/07 09:01:05;;;;;;;5.95;1.75;;;;;;;16.92;nan;102193.97;5053707;28;20160;-54
2022/07/07 09:03:30;;;;;;;9.98;2.08;;;;;;;17.34;nan;102249.09;5053795;28;20033;-56
2022/07/07 09:05:57;;;;;;;6.25;1.83;;;;;;;17.65;nan;102247.97;5053604;28;20086;-58
2022/07/07 09:08:24;;;;;;;7.60;1.92;;;;;;;17.31;nan;102209.28;5053813;28;20088;-58
2022/07/07 09:10:50;;;;;;;11.63;1.42;;;;;;;17.71;nan;102272.56;5052483;28;20056;-56
2022/07/07 09:13:26;;;;;;;6.60;1.83;;;;;;;17.54;nan;102240.38;5053392;28;20483;-56
2022/07/07 09:15:52;;;;;;;7.82;1.45;;;;;;;17.87;nan;102279.00;5053724;28;20597;-54
2022/07/07 09:18:33;;;;;;;9.35;1.88;;;;;;;18.12;nan;102289.56;5053574;28;20468;-56
2022/07/07 09:20:59;;;;;;;6.70;1.38;;;;;;;17.95;nan;102241.38;5053243;28;20543;-54
2022/07/07 09:23:25;;;;;;;8.95;1.70;;;;;;;17.90;nan;102268.22;5053411;28;20120;-55
2022/07/07 09:25:50;;;;;;;8.18;1.75;;;;;;;17.55;nan;102243.91;5051927;28;20116;-55
2022/07/07 09:28:16;;;;;;;9.63;1.92;;;;;;;17.45;nan;102246.88;5052974;28;20087;-58
2022/07/07 09:30:46;;;;;;;9.73;1.52;;;;;;;17.69;nan;102302.81;5053218;28;20053;-53
2022/07/07 09:33:18;;;;;;;8.65;2.28;;;;;;;17.81;nan;102315.66;5052962;28;20580;-54
2022/07/07 09:38:31;;;;;;;6.05;1.73;;;;;;;17.79;nan;102313.06;5052290;28;20621;-53
2022/07/07 09:41:05;;;;;;;8.45;2.42;;;;;;;17.82;nan;102318.28;5053265;28;20044;-53
2022/07/07 09:43:33;;;;;;;8.57;1.70;;;;;;;17.60;nan;102340.47;5053067;28;20036;-52
2022/07/07 09:46:22;;;;;;;4.07;1.35;;;;;;;16.78;nan;102272.47;5052776;28;20086;-58
2022/07/07 09:48:50;;;;;;;4.90;1.38;;;;;;;16.93;nan;102344.69;5052259;28;20029;-51
2022/07/07 09:51:26;;;;;;;5.10;1.20;;;;;;;17.12;nan;102336.00;5052744;28;20033;-55
2022/07/07 09:53:55;;;;;;;3.00;1.10;;;;;;;17.35;nan;102341.34;5052645;28;20503;-58
2022/07/07 09:56:22;;;;;;;2.95;1.08;;;;;;;17.66;nan;102358.88;5040465;28;20461;-55
2022/07/07 09:58:48;;;;;;;4.20;1.63;;;;;;;18.10;nan;102355.34;5032828;28;20044;-58
2022/07/07 10:01:14;;;;;;;5.80;1.30;;;;;;;18.76;nan;102362.44;5031590;28;20033;-55
2022/07/07 10:03:42;;;;;;;5.22;1.38;;;;;;;18.91;nan;102367.09;5031454;28;20046;-54
2022/07/07 10:06:09;;;;;;;8.55;1.73;;;;;;;18.91;nan;102374.25;5031545;28;20427;-57
2022/07/07 10:08:35;;;;;;;9.15;2.08;;;;;;;18.51;nan;102329.69;5047881;28;20029;-56
2022/07/07 10:11:02;;;;;;;8.68;1.80;;;;;;;18.40;nan;102379.91;5050121;28;20500;-55
2022/07/07 10:13:29;;;;;;;7.57;1.80;;;;;;;18.12;nan;102333.97;5032017;28;20099;-53
2022/07/07 10:15:55;;;;;;;7.32;2.00;;;;;;;18.56;nan;102378.41;5035712;28;20068;-58
2022/07/07 10:18:21;;;;;;;7.53;2.38;;;;;;;18.78;nan;102381.91;5041871;28;20061;-54
2022/07/07 10:20:46;;;;;;;13.50;2.80;;;;;;;19.21;nan;102386.25;5064059;28;20381;-59
2022/07/07 10:23:12;;;;;;;8.30;1.83;;;;;;;19.53;nan;102387.50;5050489;28;20063;-55
2022/07/07 10:25:37;;;;;;;8.65;2.85;;;;;;;19.23;nan;102400.41;5050365;28;20037;-57
2022/07/07 10:28:03;;;;;;;9.00;1.90;;;;;;;18.81;nan;102400.44;5044230;28;20049;-54
2022/07/07 10:30:33;;;;;;;4.90;1.90;;;;;;;18.13;nan;102376.53;5032107;28;20037;-53
2022/07/07 10:32:58;;;;;;;5.00;1.42;;;;;;;17.87;nan;102358.03;5036919;28;20493;-53
2022/07/07 10:35:25;;;;;;;4.55;1.52;;;;;;;17.91;nan;102405.84;5051999;28;20045;-56
2022/07/07 10:37:52;;;;;;;5.78;2.08;;;;;;;17.82;nan;102414.16;5050866;28;20094;-53
2022/07/07 10:40:25;;;;;;;5.53;1.25;;;;;;;18.08;nan;102421.16;5039296;28;20042;-53
2022/07/07 10:43:06;;;;;;;1.83;0.63;;;;;;;18.43;nan;102436.66;5037489;28;20114;-58
2022/07/07 10:45:32;;;;;;;;;;;;;;;18.64;nan;102442.09;5034227;28;20115;-55
2022/07/07 10:47:57;;;;;;;2.70;0.93;;;;;;;18.15;nan;102396.03;5032138;28;20002;-54
2022/07/07 10:50:30;;;;;;;3.55;1.05;;;;;;;18.29;nan;102433.66;5045583;28;20037;-57
2022/07/07 10:52:56;;;;;;;3.42;1.13;;;;;;;17.46;nan;102388.84;5046687;28;20036;-54
2022/07/07 10:55:52;;;;;;;1.98;0.88;;;;;;;17.66;nan;102428.13;5045903;28;20033;-54
2022/07/07 10:58:42;;;;;;;3.88;1.08;;;;;;;17.57;nan;102433.78;5039084;28;20040;-54
2022/07/07 11:01:08;;;;;;;2.40;1.42;;;;;;;17.75;nan;102433.06;5043530;28;20046;-54
2022/07/07 11:03:36;;;;;;;6.90;1.63;;;;;;;17.61;nan;102433.59;5046096;28;20044;-54
2022/07/07 11:06:03;;;;;;;8.50;1.90;;;;;;;17.07;nan;102439.06;5023988;28;20045;-56
2022/07/07 11:08:36;;;;;;;9.23;2.30;;;;;;;16.65;nan;102438.66;5035572;28;20132;-55
2022/07/07 11:11:03;;;;;;;4.85;1.73;;;;;;;16.59;nan;102435.34;5035917;28;20037;-54
2022/07/07 11:13:32;;;;;;;6.18;2.05;;;;;;;16.33;nan;102437.00;5037792;28;20041;-58
2022/07/07 11:16:20;;;;;;;7.85;2.17;;;;;;;16.54;nan;102450.56;5051271;28;20029;-53
2022/07/07 11:18:57;;;;;;;6.70;1.80;;;;;;;16.60;nan;102467.19;5054094;28;20098;-54
2022/07/07 11:21:43;;;;;;;9.27;2.00;;;;;;;16.85;nan;102480.56;5040459;28;20041;-53
2022/07/07 11:24:23;;;;;;;10.30;2.47;;;;;;;16.93;nan;102475.00;5039509;28;20384;-54
2022/07/07 11:27:00;;;;;;;9.13;2.25;;;;;;;16.87;nan;102417.53;5035349;28;20409;-58
2022/07/07 11:29:25;;;;;;;10.82;2.00;;;;;;;17.44;nan;102473.22;5035886;28;20116;-56
2022/07/07 11:32:07;;;;;;;5.28;1.63;;;;;;;17.18;nan;102449.31;5034956;28;20017;-58
2022/07/07 11:34:42;;;;;;;6.78;2.00;;;;;;;17.29;nan;102461.31;5036253;28;20033;-55
2022/07/07 11:37:24;;;;;;;8.35;1.98;;;;;;;17.18;nan;102511.41;5035363;28;20042;-54
2022/07/07 11:39:49;;;;;;;8.20;2.10;;;;;;;17.30;nan;102526.09;5034792;28;20033;-59
2022/07/07 11:42:15;;;;;;;13.45;2.53;;;;;;;17.31;nan;102528.66;5034390;28;20183;-60
2022/07/07 11:44:40;;;;;;;7.60;2.20;;;;;;;17.32;nan;102540.19;5036025;28;20041;-57